< < Back
Terminal Aerodrome Forecast


Current Version              Previous Versions:   1  2  3  4  5  6  7  8  9  

Terminal Aerodrome Forecast

747
FTUS44 KMOB 161700 RRA
TAFMOB
TAF
KMOB 161744Z 1618/1718 VRB06KT P6SM VCTS SCT035CB SCT040 BKN100
      TEMPO 1619/1623 3SM TSRA BKN020CB
     FM170100 VRB03KT P6SM SCT040 BKN150
     FM171300 01004KT P6SM SCT250=



Latest METAR

358
SAUS80 KWBC 171100
MTRMOB
METAR KMOB 171056Z 00000KT 7SM FEW090 SCT200 21/21 A2997 RMK AO2 SLP144
T02060206


USA.gov is the U.S. government's official web portal to all federal, state and local government web resources and services.